sensor_id;sensor_type;location;lat;lon;timestamp;temperature;humidity
26623;DHT22;14254;50.968;5.366;2022-12-11T00:00:10;2.40;99.90
26623;DHT22;14254;50.968;5.366;2022-12-11T00:02:36;2.40;99.90
26623;DHT22;14254;50.968;5.366;2022-12-11T00:05:02;2.50;99.90
26623;DHT22;14254;50.968;5.366;2022-12-11T00:07:28;2.40;99.90
26623;DHT22;14254;50.968;5.366;2022-12-11T00:09:54;2.40;99.90
26623;DHT22;14254;50.968;5.366;2022-12-11T00:12:19;2.30;99.90
26623;DHT22;14254;50.968;5.366;2022-12-11T00:14:45;2.40;99.90
26623;DHT22;14254;50.968;5.366;2022-12-11T00:17:10;2.20;99.90
26623;DHT22;14254;50.968;5.366;2022-12-11T00:19:36;2.30;99.90
26623;DHT22;14254;50.968;5.366;2022-12-11T00:22:02;2.50;99.90
26623;DHT22;14254;50.968;5.366;2022-12-11T00:24:27;2.50;99.90
26623;DHT22;14254;50.968;5.366;2022-12-11T00:26:53;2.40;99.90
26623;DHT22;14254;50.968;5.366;2022-12-11T00:29:19;2.40;99.90
26623;DHT22;14254;50.968;5.366;2022-12-11T00:31:44;2.40;99.90
26623;DHT22;14254;50.968;5.366;2022-12-11T00:34:10;2.30;99.90
26623;DHT22;14254;50.968;5.366;2022-12-11T00:36:38;2.40;99.90
26623;DHT22;14254;50.968;5.366;2022-12-11T00:39:04;2.60;99.90
26623;DHT22;14254;50.968;5.366;2022-12-11T00:41:31;2.70;99.90
26623;DHT22;14254;50.968;5.366;2022-12-11T00:43:56;2.70;99.90
26623;DHT22;14254;50.968;5.366;2022-12-11T00:46:22;2.80;99.90
26623;DHT22;14254;50.968;5.366;2022-12-11T00:48:48;2.90;99.90
26623;DHT22;14254;50.968;5.366;2022-12-11T00:51:15;2.80;99.90
26623;DHT22;14254;50.968;5.366;2022-12-11T00:53:41;2.80;99.90
26623;DHT22;14254;50.968;5.366;2022-12-11T00:56:18;2.80;99.90
26623;DHT22;14254;50.968;5.366;2022-12-11T00:58:45;2.80;99.90
26623;DHT22;14254;50.968;5.366;2022-12-11T01:01:17;2.80;99.90
26623;DHT22;14254;50.968;5.366;2022-12-11T01:03:43;2.90;99.90
26623;DHT22;14254;50.968;5.366;2022-12-11T01:06:14;2.90;99.90
26623;DHT22;14254;50.968;5.366;2022-12-11T01:08:40;2.90;99.90
26623;DHT22;14254;50.968;5.366;2022-12-11T01:11:09;2.80;99.90
26623;DHT22;14254;50.968;5.366;2022-12-11T01:13:36;2.80;99.90
26623;DHT22;14254;50.968;5.366;2022-12-11T01:16:09;2.70;99.90
26623;DHT22;14254;50.968;5.366;2022-12-11T01:18:35;2.70;99.90
26623;DHT22;14254;50.968;5.366;2022-12-11T01:21:11;2.80;99.90
26623;DHT22;14254;50.968;5.366;2022-12-11T01:23:37;2.80;99.90
26623;DHT22;14254;50.968;5.366;2022-12-11T01:26:13;2.70;99.90
26623;DHT22;14254;50.968;5.366;2022-12-11T01:28:40;2.60;99.90
26623;DHT22;14254;50.968;5.366;2022-12-11T01:31:11;2.80;99.90
26623;DHT22;14254;50.968;5.366;2022-12-11T01:33:38;3.00;99.90
26623;DHT22;14254;50.968;5.366;2022-12-11T01:36:18;2.90;99.90
26623;DHT22;14254;50.968;5.366;2022-12-11T01:38:46;2.80;99.90
26623;DHT22;14254;50.968;5.366;2022-12-11T01:41:13;2.60;99.90
26623;DHT22;14254;50.968;5.366;2022-12-11T01:46:25;2.60;99.90
26623;DHT22;14254;50.968;5.366;2022-12-11T01:48:51;2.70;99.90
26623;DHT22;14254;50.968;5.366;2022-12-11T01:51:18;2.70;99.90
26623;DHT22;14254;50.968;5.366;2022-12-11T01:53:49;2.70;99.90
26623;DHT22;14254;50.968;5.366;2022-12-11T01:56:16;2.70;99.90
26623;DHT22;14254;50.968;5.366;2022-12-11T01:58:47;2.80;99.90
26623;DHT22;14254;50.968;5.366;2022-12-11T02:01:20;2.80;99.90
26623;DHT22;14254;50.968;5.366;2022-12-11T02:03:47;2.90;99.90
26623;DHT22;14254;50.968;5.366;2022-12-11T02:06:37;2.80;99.90
26623;DHT22;14254;50.968;5.366;2022-12-11T02:09:06;2.60;99.90
26623;DHT22;14254;50.968;5.366;2022-12-11T02:17:50;2.90;99.90
26623;DHT22;14254;50.968;5.366;2022-12-11T02:28:42;3.00;99.90
26623;DHT22;14254;50.968;5.366;2022-12-11T02:31:14;2.90;99.90
26623;DHT22;14254;50.968;5.366;2022-12-11T02:33:51;2.90;99.90
26623;DHT22;14254;50.968;5.366;2022-12-11T02:36:21;2.90;99.90
26623;DHT22;14254;50.968;5.366;2022-12-11T02:38:50;3.00;99.90
26623;DHT22;14254;50.968;5.366;2022-12-11T02:41:18;2.90;99.90
26623;DHT22;14254;50.968;5.366;2022-12-11T02:43:46;3.00;99.90
26623;DHT22;14254;50.968;5.366;2022-12-11T02:46:13;3.00;99.90
26623;DHT22;14254;50.968;5.366;2022-12-11T02:48:40;2.80;99.90
26623;DHT22;14254;50.968;5.366;2022-12-11T02:51:08;2.60;99.90
26623;DHT22;14254;50.968;5.366;2022-12-11T02:53:36;2.60;99.90
26623;DHT22;14254;50.968;5.366;2022-12-11T02:56:17;2.70;99.90
26623;DHT22;14254;50.968;5.366;2022-12-11T02:58:47;2.70;99.90
26623;DHT22;14254;50.968;5.366;2022-12-11T03:01:15;2.60;99.90
26623;DHT22;14254;50.968;5.366;2022-12-11T03:03:41;2.60;99.90
26623;DHT22;14254;50.968;5.366;2022-12-11T03:06:09;2.70;99.90
26623;DHT22;14254;50.968;5.366;2022-12-11T03:08:38;2.70;99.90
26623;DHT22;14254;50.968;5.366;2022-12-11T03:11:04;2.70;99.90
26623;DHT22;14254;50.968;5.366;2022-12-11T03:13:30;2.80;99.90
26623;DHT22;14254;50.968;5.366;2022-12-11T03:19:37;2.80;99.90
26623;DHT22;14254;50.968;5.366;2022-12-11T03:22:07;2.70;99.90
26623;DHT22;14254;50.968;5.366;2022-12-11T03:24:43;2.70;99.90
26623;DHT22;14254;50.968;5.366;2022-12-11T03:27:23;2.70;99.90
26623;DHT22;14254;50.968;5.366;2022-12-11T03:30:12;2.70;99.90
26623;DHT22;14254;50.968;5.366;2022-12-11T03:33:02;2.90;99.90
26623;DHT22;14254;50.968;5.366;2022-12-11T03:38:15;2.80;99.90
26623;DHT22;14254;50.968;5.366;2022-12-11T03:40:45;2.80;99.90
26623;DHT22;14254;50.968;5.366;2022-12-11T03:43:12;2.70;99.90
26623;DHT22;14254;50.968;5.366;2022-12-11T03:45:40;2.90;99.90
26623;DHT22;14254;50.968;5.366;2022-12-11T03:48:08;2.70;99.90
26623;DHT22;14254;50.968;5.366;2022-12-11T03:50:35;2.70;99.90
26623;DHT22;14254;50.968;5.366;2022-12-11T03:53:02;2.70;99.90
26623;DHT22;14254;50.968;5.366;2022-12-11T03:55:29;2.80;99.90
26623;DHT22;14254;50.968;5.366;2022-12-11T03:57:57;2.70;99.90
26623;DHT22;14254;50.968;5.366;2022-12-11T04:00:22;2.90;99.90
26623;DHT22;14254;50.968;5.366;2022-12-11T04:02:48;2.90;99.90
26623;DHT22;14254;50.968;5.366;2022-12-11T04:05:34;2.70;99.90
26623;DHT22;14254;50.968;5.366;2022-12-11T04:08:00;2.80;99.90
26623;DHT22;14254;50.968;5.366;2022-12-11T04:10:25;2.80;99.90
26623;DHT22;14254;50.968;5.366;2022-12-11T04:12:51;2.90;99.90
26623;DHT22;14254;50.968;5.366;2022-12-11T04:15:17;2.80;99.90
26623;DHT22;14254;50.968;5.366;2022-12-11T04:17:42;2.60;99.90
26623;DHT22;14254;50.968;5.366;2022-12-11T04:20:27;2.50;99.90
26623;DHT22;14254;50.968;5.366;2022-12-11T04:23:13;2.60;99.90
26623;DHT22;14254;50.968;5.366;2022-12-11T04:26:09;2.70;99.90
26623;DHT22;14254;50.968;5.366;2022-12-11T04:28:35;2.60;99.90
26623;DHT22;14254;50.968;5.366;2022-12-11T04:31:01;2.50;99.90
26623;DHT22;14254;50.968;5.366;2022-12-11T04:33:27;2.60;99.90
26623;DHT22;14254;50.968;5.366;2022-12-11T04:35:53;2.70;99.90
26623;DHT22;14254;50.968;5.366;2022-12-11T04:38:19;2.70;99.90
26623;DHT22;14254;50.968;5.366;2022-12-11T04:40:44;2.80;99.90
26623;DHT22;14254;50.968;5.366;2022-12-11T04:43:10;2.70;99.90
26623;DHT22;14254;50.968;5.366;2022-12-11T04:45:36;2.60;99.90
26623;DHT22;14254;50.968;5.366;2022-12-11T04:48:01;2.70;99.90
26623;DHT22;14254;50.968;5.366;2022-12-11T04:50:27;2.60;99.90
26623;DHT22;14254;50.968;5.366;2022-12-11T04:52:56;2.50;99.90
26623;DHT22;14254;50.968;5.366;2022-12-11T04:55:22;2.50;99.90
26623;DHT22;14254;50.968;5.366;2022-12-11T04:57:48;2.50;99.90
26623;DHT22;14254;50.968;5.366;2022-12-11T05:00:14;2.50;99.90
26623;DHT22;14254;50.968;5.366;2022-12-11T05:02:41;2.60;99.90
26623;DHT22;14254;50.968;5.366;2022-12-11T05:05:09;2.60;99.90
26623;DHT22;14254;50.968;5.366;2022-12-11T05:07:35;2.40;99.90
26623;DHT22;14254;50.968;5.366;2022-12-11T05:10:02;2.40;99.90
26623;DHT22;14254;50.968;5.366;2022-12-11T05:12:27;2.30;99.90
26623;DHT22;14254;50.968;5.366;2022-12-11T05:14:53;2.40;99.90
26623;DHT22;14254;50.968;5.366;2022-12-11T05:17:20;2.50;99.90
26623;DHT22;14254;50.968;5.366;2022-12-11T05:19:47;2.50;99.90
26623;DHT22;14254;50.968;5.366;2022-12-11T05:22:13;2.40;99.90
26623;DHT22;14254;50.968;5.366;2022-12-11T05:24:39;2.40;99.90
26623;DHT22;14254;50.968;5.366;2022-12-11T05:27:05;2.30;99.90
26623;DHT22;14254;50.968;5.366;2022-12-11T05:29:31;2.40;99.90
26623;DHT22;14254;50.968;5.366;2022-12-11T05:31:56;2.50;99.90
26623;DHT22;14254;50.968;5.366;2022-12-11T05:34:22;2.80;99.90
26623;DHT22;14254;50.968;5.366;2022-12-11T05:36:47;2.70;99.90
26623;DHT22;14254;50.968;5.366;2022-12-11T05:39:13;2.80;99.90
26623;DHT22;14254;50.968;5.366;2022-12-11T05:41:39;2.70;99.90
26623;DHT22;14254;50.968;5.366;2022-12-11T05:44:04;2.50;99.90
26623;DHT22;14254;50.968;5.366;2022-12-11T05:46:30;2.60;99.90
26623;DHT22;14254;50.968;5.366;2022-12-11T05:49:00;2.40;99.90
26623;DHT22;14254;50.968;5.366;2022-12-11T05:51:27;2.50;99.90
26623;DHT22;14254;50.968;5.366;2022-12-11T05:53:54;2.30;99.90
26623;DHT22;14254;50.968;5.366;2022-12-11T05:56:40;2.40;99.90
26623;DHT22;14254;50.968;5.366;2022-12-11T05:59:06;2.40;99.90
26623;DHT22;14254;50.968;5.366;2022-12-11T06:01:32;2.40;99.90
26623;DHT22;14254;50.968;5.366;2022-12-11T06:03:59;2.50;99.90
26623;DHT22;14254;50.968;5.366;2022-12-11T06:06:25;2.50;99.90
26623;DHT22;14254;50.968;5.366;2022-12-11T06:08:52;2.60;99.90
26623;DHT22;14254;50.968;5.366;2022-12-11T06:11:18;2.70;99.90
26623;DHT22;14254;50.968;5.366;2022-12-11T06:13:44;2.80;99.90
26623;DHT22;14254;50.968;5.366;2022-12-11T06:16:10;2.50;99.90
26623;DHT22;14254;50.968;5.366;2022-12-11T06:18:38;2.70;99.90
26623;DHT22;14254;50.968;5.366;2022-12-11T06:21:31;2.70;99.90
26623;DHT22;14254;50.968;5.366;2022-12-11T06:23:58;2.70;99.90
26623;DHT22;14254;50.968;5.366;2022-12-11T06:26:24;2.70;99.90
26623;DHT22;14254;50.968;5.366;2022-12-11T06:28:50;2.60;99.90
26623;DHT22;14254;50.968;5.366;2022-12-11T06:31:16;2.60;99.90
26623;DHT22;14254;50.968;5.366;2022-12-11T06:33:43;2.50;99.90
26623;DHT22;14254;50.968;5.366;2022-12-11T06:36:20;2.60;99.90
26623;DHT22;14254;50.968;5.366;2022-12-11T06:38:45;2.50;99.90
26623;DHT22;14254;50.968;5.366;2022-12-11T06:41:12;2.40;99.90
26623;DHT22;14254;50.968;5.366;2022-12-11T06:43:40;2.40;99.90
26623;DHT22;14254;50.968;5.366;2022-12-11T06:46:09;2.40;99.90
26623;DHT22;14254;50.968;5.366;2022-12-11T06:48:35;2.20;99.90
26623;DHT22;14254;50.968;5.366;2022-12-11T06:51:10;2.30;99.90
26623;DHT22;14254;50.968;5.366;2022-12-11T06:53:37;2.30;99.90
26623;DHT22;14254;50.968;5.366;2022-12-11T06:56:06;2.30;99.90
26623;DHT22;14254;50.968;5.366;2022-12-11T06:58:33;2.30;99.90
26623;DHT22;14254;50.968;5.366;2022-12-11T07:01:00;2.30;99.90
26623;DHT22;14254;50.968;5.366;2022-12-11T07:03:26;2.30;99.90
26623;DHT22;14254;50.968;5.366;2022-12-11T07:05:52;2.30;99.90
26623;DHT22;14254;50.968;5.366;2022-12-11T07:08:18;2.40;99.90
26623;DHT22;14254;50.968;5.366;2022-12-11T07:10:43;2.40;99.90
26623;DHT22;14254;50.968;5.366;2022-12-11T07:13:09;2.50;99.90
26623;DHT22;14254;50.968;5.366;2022-12-11T07:15:35;2.50;99.90
26623;DHT22;14254;50.968;5.366;2022-12-11T07:18:01;2.50;99.90
26623;DHT22;14254;50.968;5.366;2022-12-11T07:20:27;2.50;99.90
26623;DHT22;14254;50.968;5.366;2022-12-11T07:22:52;2.50;99.90
26623;DHT22;14254;50.968;5.366;2022-12-11T07:25:19;2.50;99.90
26623;DHT22;14254;50.968;5.366;2022-12-11T07:27:44;2.40;99.90
26623;DHT22;14254;50.968;5.366;2022-12-11T07:30:11;2.40;99.90
26623;DHT22;14254;50.968;5.366;2022-12-11T07:32:36;2.30;99.90
26623;DHT22;14254;50.968;5.366;2022-12-11T07:35:02;2.30;99.90
26623;DHT22;14254;50.968;5.366;2022-12-11T07:37:28;2.30;99.90
26623;DHT22;14254;50.968;5.366;2022-12-11T07:39:54;2.50;99.90
26623;DHT22;14254;50.968;5.366;2022-12-11T07:42:19;2.40;99.90
26623;DHT22;14254;50.968;5.366;2022-12-11T07:44:45;2.40;99.90
26623;DHT22;14254;50.968;5.366;2022-12-11T07:47:11;2.40;99.90
26623;DHT22;14254;50.968;5.366;2022-12-11T07:49:36;2.40;99.90
26623;DHT22;14254;50.968;5.366;2022-12-11T07:52:02;2.40;99.90
26623;DHT22;14254;50.968;5.366;2022-12-11T07:54:28;2.30;99.90
26623;DHT22;14254;50.968;5.366;2022-12-11T07:56:54;2.30;99.90
26623;DHT22;14254;50.968;5.366;2022-12-11T07:59:19;2.30;99.90
26623;DHT22;14254;50.968;5.366;2022-12-11T08:01:45;2.20;99.90
26623;DHT22;14254;50.968;5.366;2022-12-11T08:04:11;2.20;99.90
26623;DHT22;14254;50.968;5.366;2022-12-11T08:06:40;2.30;99.90
26623;DHT22;14254;50.968;5.366;2022-12-11T08:09:10;2.20;99.90
26623;DHT22;14254;50.968;5.366;2022-12-11T08:11:36;2.30;99.90
26623;DHT22;14254;50.968;5.366;2022-12-11T08:14:03;2.40;99.90
26623;DHT22;14254;50.968;5.366;2022-12-11T08:16:31;2.50;99.90
26623;DHT22;14254;50.968;5.366;2022-12-11T08:18:56;2.80;99.90
26623;DHT22;14254;50.968;5.366;2022-12-11T08:21:24;2.50;99.90
26623;DHT22;14254;50.968;5.366;2022-12-11T08:23:51;2.70;99.90
26623;DHT22;14254;50.968;5.366;2022-12-11T08:26:23;2.70;99.90
26623;DHT22;14254;50.968;5.366;2022-12-11T08:28:49;2.80;99.90
26623;DHT22;14254;50.968;5.366;2022-12-11T08:31:15;2.90;99.90
26623;DHT22;14254;50.968;5.366;2022-12-11T08:33:41;2.70;99.90
26623;DHT22;14254;50.968;5.366;2022-12-11T08:36:10;2.70;99.90
26623;DHT22;14254;50.968;5.366;2022-12-11T08:38:36;2.80;99.90
26623;DHT22;14254;50.968;5.366;2022-12-11T08:41:09;2.80;99.90
26623;DHT22;14254;50.968;5.366;2022-12-11T08:43:35;3.00;99.90
26623;DHT22;14254;50.968;5.366;2022-12-11T08:46:00;3.00;99.90
26623;DHT22;14254;50.968;5.366;2022-12-11T08:48:26;3.20;99.90
26623;DHT22;14254;50.968;5.366;2022-12-11T08:50:52;3.10;99.90
26623;DHT22;14254;50.968;5.366;2022-12-11T08:53:17;3.10;99.90
26623;DHT22;14254;50.968;5.366;2022-12-11T08:55:43;2.90;99.90
26623;DHT22;14254;50.968;5.366;2022-12-11T08:58:09;3.00;99.90
26623;DHT22;14254;50.968;5.366;2022-12-11T09:00:34;2.90;99.90
26623;DHT22;14254;50.968;5.366;2022-12-11T09:03:00;2.90;99.90
26623;DHT22;14254;50.968;5.366;2022-12-11T09:05:26;2.80;99.90
26623;DHT22;14254;50.968;5.366;2022-12-11T09:07:52;2.70;99.90
26623;DHT22;14254;50.968;5.366;2022-12-11T09:10:18;2.80;99.90
26623;DHT22;14254;50.968;5.366;2022-12-11T09:12:43;2.70;99.90
26623;DHT22;14254;50.968;5.366;2022-12-11T09:15:09;2.90;99.90
26623;DHT22;14254;50.968;5.366;2022-12-11T09:17:35;2.80;99.90
26623;DHT22;14254;50.968;5.366;2022-12-11T09:20:01;2.80;99.90
26623;DHT22;14254;50.968;5.366;2022-12-11T09:22:27;3.10;99.90
26623;DHT22;14254;50.968;5.366;2022-12-11T09:24:52;2.90;99.90
26623;DHT22;14254;50.968;5.366;2022-12-11T09:27:18;3.00;99.90
26623;DHT22;14254;50.968;5.366;2022-12-11T09:29:45;3.00;99.90
26623;DHT22;14254;50.968;5.366;2022-12-11T09:32:11;3.00;99.90
26623;DHT22;14254;50.968;5.366;2022-12-11T09:34:37;3.10;99.90
26623;DHT22;14254;50.968;5.366;2022-12-11T09:37:03;3.20;99.90
26623;DHT22;14254;50.968;5.366;2022-12-11T09:39:28;3.20;99.90
26623;DHT22;14254;50.968;5.366;2022-12-11T09:42:20;3.40;99.90
26623;DHT22;14254;50.968;5.366;2022-12-11T09:45:00;2.80;99.90
26623;DHT22;14254;50.968;5.366;2022-12-11T09:47:34;2.90;99.90
26623;DHT22;14254;50.968;5.366;2022-12-11T09:55:15;2.40;99.90
26623;DHT22;14254;50.968;5.366;2022-12-11T10:00:31;2.50;99.90
26623;DHT22;14254;50.968;5.366;2022-12-11T10:10:42;2.70;99.90
26623;DHT22;14254;50.968;5.366;2022-12-11T10:13:40;2.60;99.90
26623;DHT22;14254;50.968;5.366;2022-12-11T10:16:38;2.60;99.90
26623;DHT22;14254;50.968;5.366;2022-12-11T10:19:05;2.70;99.90
26623;DHT22;14254;50.968;5.366;2022-12-11T10:21:39;2.70;99.90
26623;DHT22;14254;50.968;5.366;2022-12-11T10:24:16;2.80;99.90
26623;DHT22;14254;50.968;5.366;2022-12-11T10:26:45;2.60;99.90
26623;DHT22;14254;50.968;5.366;2022-12-11T10:29:13;2.70;99.90
26623;DHT22;14254;50.968;5.366;2022-12-11T10:31:48;2.80;99.90
26623;DHT22;14254;50.968;5.366;2022-12-11T10:34:39;2.90;99.90
26623;DHT22;14254;50.968;5.366;2022-12-11T10:37:06;3.30;99.90
26623;DHT22;14254;50.968;5.366;2022-12-11T10:39:32;3.40;99.90
26623;DHT22;14254;50.968;5.366;2022-12-11T10:41:58;3.40;99.90
26623;DHT22;14254;50.968;5.366;2022-12-11T10:44:26;3.40;99.90
26623;DHT22;14254;50.968;5.366;2022-12-11T10:47:12;3.50;99.90
26623;DHT22;14254;50.968;5.366;2022-12-11T10:49:43;3.30;99.90
26623;DHT22;14254;50.968;5.366;2022-12-11T10:52:22;3.30;99.90
26623;DHT22;14254;50.968;5.366;2022-12-11T10:57:45;3.10;99.90
26623;DHT22;14254;50.968;5.366;2022-12-11T11:00:38;3.40;99.90
26623;DHT22;14254;50.968;5.366;2022-12-11T11:03:05;3.50;99.90
26623;DHT22;14254;50.968;5.366;2022-12-11T11:05:36;3.40;99.90
26623;DHT22;14254;50.968;5.366;2022-12-11T11:08:16;3.30;99.90
26623;DHT22;14254;50.968;5.366;2022-12-11T11:10:59;3.40;99.90
26623;DHT22;14254;50.968;5.366;2022-12-11T11:13:28;3.60;99.90
26623;DHT22;14254;50.968;5.366;2022-12-11T11:16:00;3.80;99.90
26623;DHT22;14254;50.968;5.366;2022-12-11T11:18:27;3.90;99.90
26623;DHT22;14254;50.968;5.366;2022-12-11T11:20:54;3.70;99.90
26623;DHT22;14254;50.968;5.366;2022-12-11T11:23:20;3.70;99.90
26623;DHT22;14254;50.968;5.366;2022-12-11T11:26:00;3.70;99.90
26623;DHT22;14254;50.968;5.366;2022-12-11T11:28:38;3.80;99.90
26623;DHT22;14254;50.968;5.366;2022-12-11T11:31:09;3.70;99.90
26623;DHT22;14254;50.968;5.366;2022-12-11T11:33:36;3.60;99.90
26623;DHT22;14254;50.968;5.366;2022-12-11T11:36:20;3.50;99.90
26623;DHT22;14254;50.968;5.366;2022-12-11T11:41:51;3.50;99.90
26623;DHT22;14254;50.968;5.366;2022-12-11T11:44:25;3.40;99.90
26623;DHT22;14254;50.968;5.366;2022-12-11T11:46:59;3.60;99.90
26623;DHT22;14254;50.968;5.366;2022-12-11T11:52:04;3.70;99.90
26623;DHT22;14254;50.968;5.366;2022-12-11T11:54:50;3.70;99.90
26623;DHT22;14254;50.968;5.366;2022-12-11T12:00:04;3.60;99.90
26623;DHT22;14254;50.968;5.366;2022-12-11T12:02:34;3.70;99.90
26623;DHT22;14254;50.968;5.366;2022-12-11T12:05:01;3.60;99.90
26623;DHT22;14254;50.968;5.366;2022-12-11T12:15:45;3.40;99.90
26623;DHT22;14254;50.968;5.366;2022-12-11T12:18:40;3.50;99.90
26623;DHT22;14254;50.968;5.366;2022-12-11T12:26:51;3.80;99.90
26623;DHT22;14254;50.968;5.366;2022-12-11T12:29:36;3.90;99.90
26623;DHT22;14254;50.968;5.366;2022-12-11T12:32:51;3.90;99.90
26623;DHT22;14254;50.968;5.366;2022-12-11T12:35:32;3.80;99.90
26623;DHT22;14254;50.968;5.366;2022-12-11T12:43:59;3.50;99.90
26623;DHT22;14254;50.968;5.366;2022-12-11T12:49:15;3.20;99.90
26623;DHT22;14254;50.968;5.366;2022-12-11T12:51:42;3.60;99.90
26623;DHT22;14254;50.968;5.366;2022-12-11T12:54:13;3.70;99.90
26623;DHT22;14254;50.968;5.366;2022-12-11T12:56:40;3.80;99.90
26623;DHT22;14254;50.968;5.366;2022-12-11T12:59:22;3.70;99.90
26623;DHT22;14254;50.968;5.366;2022-12-11T13:01:54;3.60;99.90
26623;DHT22;14254;50.968;5.366;2022-12-11T13:04:42;3.60;99.90
26623;DHT22;14254;50.968;5.366;2022-12-11T13:07:22;3.60;99.90
26623;DHT22;14254;50.968;5.366;2022-12-11T13:10:20;3.60;99.90
26623;DHT22;14254;50.968;5.366;2022-12-11T13:12:50;3.70;99.90
26623;DHT22;14254;50.968;5.366;2022-12-11T13:15:28;3.90;99.90
26623;DHT22;14254;50.968;5.366;2022-12-11T13:17:54;3.90;99.90
26623;DHT22;14254;50.968;5.366;2022-12-11T13:20:23;4.10;99.90
26623;DHT22;14254;50.968;5.366;2022-12-11T13:25:28;4.20;99.90
26623;DHT22;14254;50.968;5.366;2022-12-11T13:28:04;4.40;99.90
26623;DHT22;14254;50.968;5.366;2022-12-11T13:30:30;4.60;99.90
26623;DHT22;14254;50.968;5.366;2022-12-11T13:33:03;4.50;99.90
26623;DHT22;14254;50.968;5.366;2022-12-11T13:35:31;4.50;99.90
26623;DHT22;14254;50.968;5.366;2022-12-11T13:38:19;4.60;99.90
26623;DHT22;14254;50.968;5.366;2022-12-11T13:40:51;4.80;99.90
26623;DHT22;14254;50.968;5.366;2022-12-11T13:43:27;5.00;99.90
26623;DHT22;14254;50.968;5.366;2022-12-11T13:46:03;5.00;99.90
26623;DHT22;14254;50.968;5.366;2022-12-11T13:48:38;5.00;99.90
26623;DHT22;14254;50.968;5.366;2022-12-11T13:51:05;5.00;99.90
26623;DHT22;14254;50.968;5.366;2022-12-11T13:53:31;5.10;99.90
26623;DHT22;14254;50.968;5.366;2022-12-11T13:55:58;5.40;99.90
26623;DHT22;14254;50.968;5.366;2022-12-11T13:58:24;5.90;99.90
26623;DHT22;14254;50.968;5.366;2022-12-11T14:01:15;6.10;99.90
26623;DHT22;14254;50.968;5.366;2022-12-11T14:03:48;6.30;99.90
26623;DHT22;14254;50.968;5.366;2022-12-11T14:06:17;5.60;99.90
26623;DHT22;14254;50.968;5.366;2022-12-11T14:08:44;5.40;99.90
26623;DHT22;14254;50.968;5.366;2022-12-11T14:11:20;5.10;99.90
26623;DHT22;14254;50.968;5.366;2022-12-11T14:13:47;4.80;99.90
26623;DHT22;14254;50.968;5.366;2022-12-11T14:16:19;4.70;99.90
26623;DHT22;14254;50.968;5.366;2022-12-11T14:18:48;4.50;99.90
26623;DHT22;14254;50.968;5.366;2022-12-11T14:21:20;4.50;99.90
26623;DHT22;14254;50.968;5.366;2022-12-11T14:23:51;4.40;99.90
26623;DHT22;14254;50.968;5.366;2022-12-11T14:26:23;4.40;99.90
26623;DHT22;14254;50.968;5.366;2022-12-11T14:28:49;4.50;99.90
26623;DHT22;14254;50.968;5.366;2022-12-11T14:31:20;4.20;99.90
26623;DHT22;14254;50.968;5.366;2022-12-11T14:33:51;4.20;99.90
26623;DHT22;14254;50.968;5.366;2022-12-11T14:36:18;4.30;99.90
26623;DHT22;14254;50.968;5.366;2022-12-11T14:38:47;4.20;99.90
26623;DHT22;14254;50.968;5.366;2022-12-11T14:41:28;4.00;99.90
26623;DHT22;14254;50.968;5.366;2022-12-11T14:43:59;4.00;99.90
26623;DHT22;14254;50.968;5.366;2022-12-11T14:46:38;4.00;99.90
26623;DHT22;14254;50.968;5.366;2022-12-11T14:49:15;3.90;99.90
26623;DHT22;14254;50.968;5.366;2022-12-11T14:51:42;4.00;99.90
26623;DHT22;14254;50.968;5.366;2022-12-11T14:54:50;3.90;99.90
26623;DHT22;14254;50.968;5.366;2022-12-11T14:57:17;3.80;99.90
26623;DHT22;14254;50.968;5.366;2022-12-11T14:59:45;3.80;99.90
26623;DHT22;14254;50.968;5.366;2022-12-11T15:02:38;3.80;99.90
26623;DHT22;14254;50.968;5.366;2022-12-11T15:05:14;3.70;99.90
26623;DHT22;14254;50.968;5.366;2022-12-11T15:07:51;3.70;99.90
26623;DHT22;14254;50.968;5.366;2022-12-11T15:10:25;3.80;99.90
26623;DHT22;14254;50.968;5.366;2022-12-11T15:12:51;3.80;99.90
26623;DHT22;14254;50.968;5.366;2022-12-11T15:15:18;3.80;99.90
26623;DHT22;14254;50.968;5.366;2022-12-11T15:17:44;3.80;99.90
26623;DHT22;14254;50.968;5.366;2022-12-11T15:20:25;3.80;99.90
26623;DHT22;14254;50.968;5.366;2022-12-11T15:22:53;3.70;99.90
26623;DHT22;14254;50.968;5.366;2022-12-11T15:25:24;3.90;99.90
26623;DHT22;14254;50.968;5.366;2022-12-11T15:27:56;3.70;99.90
26623;DHT22;14254;50.968;5.366;2022-12-11T15:30:23;3.60;99.90
26623;DHT22;14254;50.968;5.366;2022-12-11T15:35:38;3.60;99.90
26623;DHT22;14254;50.968;5.366;2022-12-11T15:38:04;3.70;99.90
26623;DHT22;14254;50.968;5.366;2022-12-11T15:40:30;3.60;99.90
26623;DHT22;14254;50.968;5.366;2022-12-11T15:42:57;3.60;99.90
26623;DHT22;14254;50.968;5.366;2022-12-11T15:45:26;3.70;99.90
26623;DHT22;14254;50.968;5.366;2022-12-11T15:47:53;3.70;99.90
26623;DHT22;14254;50.968;5.366;2022-12-11T15:50:21;3.40;99.90
26623;DHT22;14254;50.968;5.366;2022-12-11T15:52:48;3.40;99.90
26623;DHT22;14254;50.968;5.366;2022-12-11T15:55:15;3.30;99.90
26623;DHT22;14254;50.968;5.366;2022-12-11T15:57:46;3.30;99.90
26623;DHT22;14254;50.968;5.366;2022-12-11T16:00:14;3.30;99.90
26623;DHT22;14254;50.968;5.366;2022-12-11T16:02:40;3.20;99.90
26623;DHT22;14254;50.968;5.366;2022-12-11T16:05:06;3.10;99.90
26623;DHT22;14254;50.968;5.366;2022-12-11T16:07:32;3.10;99.90
26623;DHT22;14254;50.968;5.366;2022-12-11T16:10:01;3.10;99.90
26623;DHT22;14254;50.968;5.366;2022-12-11T16:12:26;3.10;99.90
26623;DHT22;14254;50.968;5.366;2022-12-11T16:14:52;3.10;99.90
26623;DHT22;14254;50.968;5.366;2022-12-11T16:17:18;3.10;99.90
26623;DHT22;14254;50.968;5.366;2022-12-11T16:19:44;3.10;99.90
26623;DHT22;14254;50.968;5.366;2022-12-11T16:22:14;3.10;99.90
26623;DHT22;14254;50.968;5.366;2022-12-11T16:24:41;3.10;99.90
26623;DHT22;14254;50.968;5.366;2022-12-11T16:27:07;3.10;99.90
26623;DHT22;14254;50.968;5.366;2022-12-11T16:29:38;3.10;99.90
26623;DHT22;14254;50.968;5.366;2022-12-11T16:32:05;3.10;99.90
26623;DHT22;14254;50.968;5.366;2022-12-11T16:34:33;3.10;99.90
26623;DHT22;14254;50.968;5.366;2022-12-11T16:36:59;3.10;99.90
26623;DHT22;14254;50.968;5.366;2022-12-11T16:39:25;3.30;99.90
26623;DHT22;14254;50.968;5.366;2022-12-11T16:41:51;3.20;99.90
26623;DHT22;14254;50.968;5.366;2022-12-11T16:44:22;3.30;99.90
26623;DHT22;14254;50.968;5.366;2022-12-11T16:46:48;3.30;99.90
26623;DHT22;14254;50.968;5.366;2022-12-11T16:49:14;3.30;99.90
26623;DHT22;14254;50.968;5.366;2022-12-11T16:51:40;3.30;99.90
26623;DHT22;14254;50.968;5.366;2022-12-11T16:54:06;3.20;99.90
26623;DHT22;14254;50.968;5.366;2022-12-11T16:56:32;3.10;99.90
26623;DHT22;14254;50.968;5.366;2022-12-11T16:58:59;3.00;99.90
26623;DHT22;14254;50.968;5.366;2022-12-11T17:01:25;2.70;99.90
26623;DHT22;14254;50.968;5.366;2022-12-11T17:03:51;2.60;99.90
26623;DHT22;14254;50.968;5.366;2022-12-11T17:06:17;2.50;99.90
26623;DHT22;14254;50.968;5.366;2022-12-11T17:08:43;2.30;99.90
26623;DHT22;14254;50.968;5.366;2022-12-11T17:11:11;2.00;99.90
26623;DHT22;14254;50.968;5.366;2022-12-11T17:13:38;2.10;99.90
26623;DHT22;14254;50.968;5.366;2022-12-11T17:16:14;2.30;99.90
26623;DHT22;14254;50.968;5.366;2022-12-11T17:18:40;2.40;99.90